createdAt,value
2019-06-26T00:00:26.759Z,26.80
2019-06-26T00:02:56.248Z,26.90
2019-06-26T00:05:25.399Z,26.90
2019-06-26T00:07:54.543Z,26.90
2019-06-26T00:10:23.586Z,26.80
2019-06-26T00:12:52.906Z,26.80
2019-06-26T00:15:22.003Z,26.80
2019-06-26T00:17:51.654Z,26.80
2019-06-26T00:20:23.856Z,26.70
2019-06-26T00:22:52.974Z,26.70
2019-06-26T00:25:28.166Z,26.70
2019-06-26T00:27:57.439Z,26.70
2019-06-26T00:30:26.535Z,26.70
2019-06-26T00:32:58.927Z,26.70
2019-06-26T00:35:27.978Z,26.70
2019-06-26T00:37:57.070Z,26.70
2019-06-26T00:40:26.506Z,26.70
2019-06-26T00:42:56.066Z,26.70
2019-06-26T00:45:25.485Z,26.70
2019-06-26T00:47:54.674Z,26.70
2019-06-26T00:50:23.753Z,26.70
2019-06-26T00:52:52.570Z,26.70
2019-06-26T00:55:21.639Z,26.60
2019-06-26T00:57:50.762Z,26.60
2019-06-26T01:00:25.199Z,26.60
2019-06-26T01:02:54.493Z,26.60
2019-06-26T01:05:23.505Z,26.60
2019-06-26T01:07:55.530Z,26.50
2019-06-26T01:10:24.433Z,26.60
2019-06-26T01:12:53.525Z,26.50
2019-06-26T01:15:22.464Z,26.60
2019-06-26T01:17:51.713Z,26.60
2019-06-26T01:20:20.653Z,26.50
2019-06-26T01:22:49.619Z,26.50
2019-06-26T01:25:37.893Z,26.60
2019-06-26T01:28:10.191Z,26.50
2019-06-26T01:30:39.203Z,26.50
2019-06-26T01:33:08.520Z,26.50
2019-06-26T01:35:37.461Z,26.50
2019-06-26T01:38:06.628Z,26.50
2019-06-26T01:40:35.613Z,26.50
2019-06-26T01:43:04.858Z,26.50
2019-06-26T01:45:53.042Z,26.50
2019-06-26T01:48:25.366Z,26.50
2019-06-26T01:50:54.566Z,26.50
2019-06-26T01:53:23.644Z,26.40
2019-06-26T01:55:52.603Z,26.50
2019-06-26T01:58:24.944Z,26.50
2019-06-26T02:00:53.765Z,26.50
2019-06-26T02:03:22.923Z,26.50
2019-06-26T02:05:51.743Z,26.50
2019-06-26T02:08:20.747Z,26.50
2019-06-26T02:10:49.730Z,26.50
2019-06-26T02:13:19.683Z,26.50
2019-06-26T02:15:48.648Z,26.50
2019-06-26T02:18:36.275Z,26.50
2019-06-26T02:21:05.104Z,26.50
2019-06-26T02:23:33.907Z,26.50
2019-06-26T02:26:02.905Z,26.50
2019-06-26T02:28:32.036Z,26.50
2019-06-26T02:31:00.909Z,26.50
2019-06-26T02:33:29.759Z,26.50
2019-06-26T02:35:58.601Z,26.40
2019-06-26T02:38:27.665Z,26.40
2019-06-26T02:40:56.704Z,26.40
2019-06-26T02:43:25.591Z,26.40
2019-06-26T02:45:54.583Z,26.40
2019-06-26T02:48:23.606Z,26.40
2019-06-26T02:50:52.379Z,26.40
2019-06-26T02:53:21.205Z,26.40
2019-06-26T02:55:49.988Z,26.40
2019-06-26T02:58:18.933Z,26.40
2019-06-26T03:00:47.909Z,26.30
2019-06-26T03:03:16.771Z,26.30
2019-06-26T03:05:45.557Z,26.30
2019-06-26T03:08:14.466Z,26.30
2019-06-26T03:10:43.302Z,26.30
2019-06-26T03:13:12.205Z,26.40
2019-06-26T03:15:41.092Z,26.30
2019-06-26T03:18:10.138Z,26.40
2019-06-26T03:20:43.021Z,26.40
2019-06-26T03:23:11.862Z,26.30
2019-06-26T03:25:40.801Z,26.30
2019-06-26T03:28:09.650Z,26.30
2019-06-26T03:30:38.471Z,26.30
2019-06-26T03:33:07.342Z,26.30
2019-06-26T03:35:36.266Z,26.30
2019-06-26T03:38:05.194Z,26.30
2019-06-26T03:40:33.976Z,26.30
2019-06-26T03:43:02.885Z,26.30
2019-06-26T03:45:31.812Z,26.30
2019-06-26T03:48:00.610Z,26.30
2019-06-26T03:50:29.470Z,26.30
2019-06-26T03:52:58.514Z,26.30
2019-06-26T03:55:27.314Z,26.30
2019-06-26T03:57:56.079Z,26.30
2019-06-26T04:00:37.194Z,26.30
2019-06-26T04:03:06.073Z,26.30
2019-06-26T04:05:34.943Z,26.20
2019-06-26T04:08:03.872Z,26.20
2019-06-26T04:10:32.641Z,26.30
2019-06-26T04:13:01.637Z,26.30
2019-06-26T04:15:41.412Z,26.30
2019-06-26T04:18:01.153Z,26.30
2019-06-26T04:20:31.666Z,26.20
2019-06-26T04:23:00.523Z,26.20
2019-06-26T04:25:29.428Z,26.20
2019-06-26T04:27:58.310Z,26.20
2019-06-26T04:30:27.190Z,26.10
2019-06-26T04:32:55.949Z,26.10
2019-06-26T04:35:24.737Z,26.10
2019-06-26T04:37:53.913Z,26.00
2019-06-26T04:40:22.850Z,26.10
2019-06-26T04:42:51.590Z,26.10
2019-06-26T04:45:20.429Z,26.10
2019-06-26T04:47:49.201Z,26.10
2019-06-26T04:50:18.868Z,26.10
2019-06-26T04:52:47.682Z,26.10
2019-06-26T04:55:16.650Z,26.10
2019-06-26T04:57:45.681Z,26.10
2019-06-26T05:00:14.640Z,26.10
2019-06-26T05:02:43.445Z,26.10
2019-06-26T05:05:13.901Z,26.10
2019-06-26T05:07:42.753Z,26.10
2019-06-26T05:10:11.605Z,26.20
2019-06-26T05:12:40.444Z,26.10
2019-06-26T05:15:09.305Z,26.10
2019-06-26T05:17:39.522Z,26.10
2019-06-26T05:20:09.370Z,26.20
2019-06-26T05:22:38.185Z,26.20
2019-06-26T05:25:07.155Z,26.20
2019-06-26T05:27:35.968Z,26.20
2019-06-26T05:30:06.024Z,26.20
2019-06-26T05:32:34.817Z,26.20
2019-06-26T05:35:03.704Z,26.20
2019-06-26T05:37:32.525Z,26.20
2019-06-26T05:40:02.438Z,26.20
2019-06-26T05:42:31.389Z,26.20
2019-06-26T05:45:00.877Z,26.10
2019-06-26T05:47:29.662Z,26.10
2019-06-26T05:49:58.554Z,26.10
2019-06-26T05:52:27.406Z,26.10
2019-06-26T05:54:56.177Z,26.10
2019-06-26T05:57:25.141Z,26.10
2019-06-26T05:59:53.964Z,26.10
2019-06-26T06:02:42.086Z,26.10
2019-06-26T06:05:13.982Z,26.10
2019-06-26T06:07:42.920Z,26.10
2019-06-26T06:10:11.865Z,26.00
2019-06-26T06:12:40.706Z,26.00
2019-06-26T06:15:09.716Z,26.00
2019-06-26T06:17:38.624Z,26.00
2019-06-26T06:20:07.604Z,25.90
2019-06-26T06:22:36.582Z,25.90
2019-06-26T06:25:07.226Z,25.90
2019-06-26T06:27:38.609Z,25.80
2019-06-26T06:30:07.553Z,25.80
2019-06-26T06:32:36.440Z,25.80
2019-06-26T06:35:05.415Z,25.80
2019-06-26T06:37:34.331Z,25.80
2019-06-26T06:40:04.371Z,25.80
2019-06-26T06:42:34.311Z,25.80
2019-06-26T06:45:03.253Z,25.80
2019-06-26T06:47:32.252Z,25.80
2019-06-26T06:50:01.671Z,25.80
2019-06-26T06:52:30.945Z,25.80
2019-06-26T06:54:59.814Z,25.80
2019-06-26T06:57:28.773Z,25.80
2019-06-26T06:59:57.607Z,25.80
2019-06-26T07:02:26.590Z,25.80
2019-06-26T07:04:55.593Z,25.80
2019-06-26T07:07:24.582Z,25.80
2019-06-26T07:09:53.532Z,25.80
2019-06-26T07:12:22.328Z,25.80
2019-06-26T07:14:51.255Z,25.80
2019-06-26T07:17:21.395Z,25.80
2019-06-26T07:19:50.526Z,25.80
2019-06-26T07:22:19.382Z,25.80
2019-06-26T07:24:48.981Z,25.80
2019-06-26T07:27:17.809Z,25.80
2019-06-26T07:29:46.648Z,25.80
2019-06-26T07:32:15.723Z,25.80
2019-06-26T07:34:44.575Z,25.80
2019-06-26T07:37:13.543Z,25.70
2019-06-26T07:39:42.519Z,25.80
2019-06-26T07:42:11.496Z,25.80
2019-06-26T07:44:40.302Z,25.70
2019-06-26T07:47:22.395Z,25.70
2019-06-26T07:49:39.723Z,25.70
2019-06-26T07:52:08.674Z,25.70
2019-06-26T07:54:37.589Z,25.70
2019-06-26T07:57:06.434Z,25.70
2019-06-26T07:59:35.326Z,25.70
2019-06-26T08:02:04.171Z,25.70
2019-06-26T08:04:32.971Z,25.60
2019-06-26T08:07:01.786Z,25.60
2019-06-26T08:09:30.586Z,25.60
2019-06-26T08:11:59.455Z,25.50
2019-06-26T08:14:28.382Z,25.50
2019-06-26T08:16:57.158Z,25.40
2019-06-26T08:19:26.006Z,25.40
2019-06-26T08:21:54.822Z,25.40
2019-06-26T08:24:23.709Z,25.40
2019-06-26T08:26:52.529Z,25.50
2019-06-26T08:29:21.621Z,25.50
2019-06-26T08:31:50.694Z,25.50
2019-06-26T08:34:19.617Z,25.50
2019-06-26T08:36:48.413Z,25.50
2019-06-26T08:39:17.331Z,25.50
2019-06-26T08:41:47.924Z,25.50
2019-06-26T08:44:16.834Z,25.50
2019-06-26T08:46:45.720Z,25.50
2019-06-26T08:49:24.882Z,25.50
2019-06-26T08:51:45.071Z,25.50
2019-06-26T08:54:13.997Z,25.60
2019-06-26T08:56:42.930Z,25.50
2019-06-26T08:59:11.735Z,25.60
2019-06-26T09:01:40.589Z,25.50
2019-06-26T09:04:09.374Z,25.50
2019-06-26T09:06:38.195Z,25.60
2019-06-26T09:09:07.487Z,25.60
2019-06-26T09:11:36.481Z,25.60
2019-06-26T09:14:05.262Z,25.60
2019-06-26T09:16:34.103Z,25.50
2019-06-26T09:19:03.042Z,25.50
2019-06-26T09:21:31.853Z,25.50
2019-06-26T09:24:00.725Z,25.60
2019-06-26T09:26:29.534Z,25.60
2019-06-26T09:28:58.469Z,25.50
2019-06-26T09:31:27.392Z,25.60
2019-06-26T09:33:56.304Z,25.50
2019-06-26T09:36:25.071Z,25.50
2019-06-26T09:38:57.750Z,25.50
2019-06-26T09:41:24.422Z,25.50
2019-06-26T09:43:53.282Z,25.50
2019-06-26T09:46:22.189Z,25.50
2019-06-26T09:48:53.169Z,25.50
2019-06-26T09:51:21.526Z,25.60
2019-06-26T09:53:50.414Z,25.50
2019-06-26T09:56:19.258Z,25.50
2019-06-26T09:58:48.233Z,25.50
2019-06-26T10:01:17.131Z,25.50
2019-06-26T10:03:45.988Z,25.50
2019-06-26T10:06:14.782Z,25.50
2019-06-26T10:08:45.856Z,25.50
2019-06-26T10:11:14.632Z,25.50
2019-06-26T10:13:43.454Z,25.50
2019-06-26T10:16:12.306Z,25.50
2019-06-26T10:18:41.097Z,25.50
2019-06-26T10:21:09.929Z,25.50
2019-06-26T10:23:39.761Z,25.50
2019-06-26T10:26:27.851Z,25.50
2019-06-26T10:28:56.712Z,25.50
2019-06-26T10:31:25.650Z,25.50
2019-06-26T10:34:13.790Z,25.50
2019-06-26T10:36:42.665Z,25.50
2019-06-26T10:39:11.469Z,25.50
2019-06-26T10:41:41.910Z,25.40
2019-06-26T10:44:12.119Z,25.50
2019-06-26T10:46:40.988Z,25.50
2019-06-26T10:49:22.698Z,25.50
2019-06-26T10:51:40.492Z,25.50
2019-06-26T10:54:09.324Z,25.50
2019-06-26T10:56:38.133Z,25.50
2019-06-26T10:59:07.083Z,25.50
2019-06-26T11:01:36.020Z,25.50
2019-06-26T11:04:04.962Z,25.50
2019-06-26T11:06:37.102Z,25.50
2019-06-26T11:09:05.698Z,25.50
2019-06-26T11:11:34.700Z,25.50
2019-06-26T11:14:03.527Z,25.50
2019-06-26T11:16:32.365Z,25.50
2019-06-26T11:19:01.402Z,25.50
2019-06-26T11:21:30.375Z,25.50
2019-06-26T11:23:59.323Z,25.50
2019-06-26T11:26:28.115Z,25.50
2019-06-26T11:28:57.106Z,25.50
2019-06-26T11:31:26.011Z,25.60
2019-06-26T11:33:54.863Z,25.60
2019-06-26T11:36:23.659Z,25.60
2019-06-26T11:38:52.567Z,25.60
2019-06-26T11:41:21.523Z,25.60
2019-06-26T11:43:50.393Z,25.60
2019-06-26T11:46:20.430Z,25.60
2019-06-26T11:48:49.393Z,25.60
2019-06-26T11:51:18.206Z,25.60
2019-06-26T11:53:47.098Z,25.60
2019-06-26T11:56:16.055Z,25.60
2019-06-26T11:58:44.870Z,25.60
2019-06-26T12:01:13.758Z,25.60
2019-06-26T12:03:42.643Z,25.60
2019-06-26T12:06:18.673Z,25.60
2019-06-26T12:08:42.090Z,25.60
2019-06-26T12:11:10.953Z,25.60
2019-06-26T12:13:40.129Z,25.60
2019-06-26T12:16:09.282Z,25.60
2019-06-26T12:18:38.157Z,25.70
2019-06-26T12:21:07.082Z,25.70
2019-06-26T12:23:36.040Z,25.70
2019-06-26T12:26:05.066Z,25.70
2019-06-26T12:28:34.009Z,25.70
2019-06-26T12:31:02.977Z,25.70
2019-06-26T12:33:32.039Z,25.70
2019-06-26T12:36:00.958Z,25.70
2019-06-26T12:38:29.880Z,25.70
2019-06-26T12:41:00.863Z,25.70
2019-06-26T12:43:29.711Z,25.70
2019-06-26T12:45:58.635Z,25.80
2019-06-26T12:48:27.611Z,25.80
2019-06-26T12:50:56.621Z,25.80
2019-06-26T12:53:27.613Z,25.80
2019-06-26T12:55:56.565Z,25.80
2019-06-26T12:58:25.366Z,25.80
2019-06-26T13:00:54.168Z,25.80
2019-06-26T13:03:22.973Z,25.80
2019-06-26T13:05:51.865Z,25.80
2019-06-26T13:08:20.679Z,25.80
2019-06-26T13:10:50.601Z,25.90
2019-06-26T13:13:19.661Z,25.90
2019-06-26T13:15:55.693Z,25.90
2019-06-26T13:18:24.683Z,25.90
2019-06-26T13:20:53.938Z,25.90
2019-06-26T13:23:22.834Z,25.90
2019-06-26T13:25:51.823Z,26.00
2019-06-26T13:28:20.873Z,26.00
2019-06-26T13:30:53.069Z,26.00
2019-06-26T13:33:20.234Z,26.00
2019-06-26T13:35:49.037Z,26.00
2019-06-26T13:38:17.793Z,26.00
2019-06-26T13:40:46.629Z,26.00
2019-06-26T13:43:15.512Z,26.00
2019-06-26T13:45:44.275Z,26.00
2019-06-26T13:48:13.027Z,26.00
2019-06-26T13:50:41.821Z,26.00
2019-06-26T13:53:10.581Z,26.10
2019-06-26T13:55:41.137Z,26.10
2019-06-26T13:58:09.893Z,26.10
2019-06-26T14:00:38.756Z,26.10
2019-06-26T14:03:07.569Z,26.10
2019-06-26T14:05:36.325Z,26.10
2019-06-26T14:08:05.995Z,26.10
2019-06-26T14:10:34.741Z,26.10
2019-06-26T14:13:03.546Z,26.10
2019-06-26T14:15:32.401Z,26.10
2019-06-26T14:18:01.152Z,26.20
2019-06-26T14:20:29.910Z,26.20
2019-06-26T14:22:58.673Z,26.10
2019-06-26T14:25:27.440Z,26.20
2019-06-26T14:27:56.230Z,26.10
2019-06-26T14:30:27.824Z,26.10
2019-06-26T14:32:55.553Z,26.10
2019-06-26T14:35:24.401Z,26.10
2019-06-26T14:37:53.213Z,26.10
2019-06-26T14:40:21.982Z,26.10
2019-06-26T14:42:50.812Z,26.20
2019-06-26T14:45:19.601Z,26.10
2019-06-26T14:47:48.433Z,26.10
2019-06-26T14:50:17.244Z,26.20
2019-06-26T14:52:46.225Z,26.20
2019-06-26T14:55:15.046Z,26.20
2019-06-26T14:57:43.798Z,26.20
2019-06-26T15:00:14.931Z,26.20
2019-06-26T15:02:43.825Z,26.20
2019-06-26T15:05:14.290Z,26.20
2019-06-26T15:07:43.087Z,26.20
2019-06-26T15:10:13.497Z,26.20
2019-06-26T15:12:42.319Z,26.20
2019-06-26T15:15:11.125Z,26.20
2019-06-26T15:17:39.887Z,26.20
2019-06-26T15:20:08.666Z,26.20
2019-06-26T15:22:37.510Z,26.20
2019-06-26T15:25:06.647Z,26.20
2019-06-26T15:27:36.302Z,26.20
2019-06-26T15:30:05.927Z,26.20
2019-06-26T15:32:34.704Z,26.20
2019-06-26T15:35:04.246Z,26.20
2019-06-26T15:37:33.181Z,26.20
2019-06-26T15:40:02.011Z,26.30
2019-06-26T15:42:30.770Z,26.30
2019-06-26T15:44:59.604Z,26.20
2019-06-26T15:47:28.429Z,26.20
2019-06-26T15:49:57.265Z,26.30
2019-06-26T15:52:26.126Z,26.30
2019-06-26T15:54:54.930Z,26.30
2019-06-26T15:57:23.770Z,26.30
2019-06-26T15:59:52.544Z,26.30
2019-06-26T16:02:21.329Z,26.30
2019-06-26T16:04:50.207Z,26.30
2019-06-26T16:07:19.050Z,26.30
2019-06-26T16:09:48.027Z,26.20
2019-06-26T16:12:16.874Z,26.20
2019-06-26T16:14:45.674Z,26.20
2019-06-26T16:17:28.786Z,26.10
2019-06-26T16:19:57.621Z,26.10
2019-06-26T16:22:32.220Z,26.10
2019-06-26T16:25:16.190Z,26.10
2019-06-26T16:27:45.127Z,26.10
2019-06-26T16:30:13.892Z,26.10
2019-06-26T16:32:42.647Z,26.10
2019-06-26T16:35:12.446Z,26.10
2019-06-26T16:37:41.371Z,26.00
2019-06-26T16:40:10.138Z,26.00
2019-06-26T16:42:38.925Z,26.00
2019-06-26T16:45:07.702Z,26.00
2019-06-26T16:47:36.490Z,26.00
2019-06-26T16:50:05.505Z,26.00
2019-06-26T16:52:48.044Z,25.90
2019-06-26T16:55:05.378Z,25.90
2019-06-26T16:57:34.146Z,25.90
2019-06-26T17:00:09.682Z,25.90
2019-06-26T17:02:33.433Z,25.80
2019-06-26T17:05:02.215Z,25.80
2019-06-26T17:07:31.204Z,25.80
2019-06-26T17:10:00.103Z,25.80
2019-06-26T17:12:28.890Z,25.70
2019-06-26T17:14:57.710Z,25.70
2019-06-26T17:17:26.482Z,25.70
2019-06-26T17:19:55.266Z,25.60
2019-06-26T17:22:24.926Z,25.70
2019-06-26T17:24:53.690Z,25.60
2019-06-26T17:27:22.457Z,25.60
2019-06-26T17:29:51.338Z,25.60
2019-06-26T17:32:20.211Z,25.60
2019-06-26T17:34:48.976Z,25.60
2019-06-26T17:37:17.758Z,25.50
2019-06-26T17:39:46.635Z,25.60
2019-06-26T17:42:15.430Z,25.50
2019-06-26T17:44:44.279Z,25.50
2019-06-26T17:47:13.054Z,25.50
2019-06-26T17:49:41.906Z,25.50
2019-06-26T17:52:10.734Z,25.40
2019-06-26T17:54:39.594Z,25.40
2019-06-26T17:57:08.393Z,25.40
2019-06-26T17:59:37.158Z,25.40
2019-06-26T18:02:05.935Z,25.40
2019-06-26T18:04:34.902Z,25.40
2019-06-26T18:07:03.684Z,25.30
2019-06-26T18:09:32.535Z,25.30
2019-06-26T18:12:01.392Z,25.40
2019-06-26T18:14:30.154Z,25.40
2019-06-26T18:16:58.927Z,25.40
2019-06-26T18:19:28.206Z,25.40
2019-06-26T18:21:56.969Z,25.40
2019-06-26T18:24:25.754Z,25.40
2019-06-26T18:26:54.598Z,25.50
2019-06-26T18:29:23.382Z,25.40
2019-06-26T18:31:52.192Z,25.40
2019-06-26T18:34:21.027Z,25.50
2019-06-26T18:36:49.794Z,25.40
2019-06-26T18:39:18.654Z,25.40
2019-06-26T18:41:47.458Z,25.40
2019-06-26T18:44:16.213Z,25.40
2019-06-26T18:46:45.006Z,25.50
2019-06-26T18:49:13.774Z,25.50
2019-06-26T18:51:42.571Z,25.50
2019-06-26T18:54:11.347Z,25.50
2019-06-26T18:56:40.121Z,25.50
2019-06-26T18:59:09.083Z,25.50
2019-06-26T19:01:37.838Z,25.50
2019-06-26T19:04:06.622Z,25.50
2019-06-26T19:06:35.378Z,25.50
2019-06-26T19:09:05.230Z,25.50
2019-06-26T19:11:34.079Z,25.50
2019-06-26T19:14:02.855Z,25.50
2019-06-26T19:16:31.730Z,25.50
2019-06-26T19:19:00.578Z,25.50
2019-06-26T19:21:29.403Z,25.50
2019-06-26T19:24:09.625Z,25.40
2019-06-26T19:26:28.747Z,25.50
2019-06-26T19:28:57.540Z,25.50
2019-06-26T19:31:26.320Z,25.50
2019-06-26T19:33:55.158Z,25.50
2019-06-26T19:36:28.293Z,25.50
2019-06-26T19:38:54.461Z,25.50
2019-06-26T19:41:23.302Z,25.50
2019-06-26T19:43:52.115Z,25.50
2019-06-26T19:46:20.958Z,25.50
2019-06-26T19:48:49.744Z,25.50
2019-06-26T19:51:18.556Z,25.50
2019-06-26T19:53:47.326Z,25.60
2019-06-26T19:56:19.821Z,25.50
2019-06-26T19:58:46.832Z,25.60
2019-06-26T20:01:17.852Z,25.60
2019-06-26T20:03:48.367Z,25.60
2019-06-26T20:06:36.483Z,25.60
2019-06-26T20:09:06.469Z,25.60
2019-06-26T20:11:36.443Z,25.60
2019-06-26T20:14:05.215Z,25.60
2019-06-26T20:16:36.633Z,25.60
2019-06-26T20:19:04.676Z,25.60
2019-06-26T20:21:33.530Z,25.60
2019-06-26T20:24:02.397Z,25.50
2019-06-26T20:26:31.283Z,25.60
2019-06-26T20:29:00.067Z,25.60
2019-06-26T20:31:28.925Z,25.60
2019-06-26T20:33:57.745Z,25.60
2019-06-26T20:36:26.491Z,25.60
2019-06-26T20:38:55.217Z,25.60
2019-06-26T20:41:23.994Z,25.60
2019-06-26T20:43:52.953Z,25.70
2019-06-26T20:46:21.749Z,25.60
2019-06-26T20:48:50.527Z,25.70
2019-06-26T20:51:20.894Z,25.60
2019-06-26T20:53:49.966Z,25.70
2019-06-26T20:56:18.778Z,25.60
2019-06-26T20:58:47.628Z,25.70
2019-06-26T21:01:16.414Z,25.70
2019-06-26T21:03:45.179Z,25.70
2019-06-26T21:06:13.946Z,25.70
2019-06-26T21:08:42.738Z,25.70
2019-06-26T21:11:11.526Z,25.70
2019-06-26T21:13:40.323Z,25.70
2019-06-26T21:16:09.124Z,25.60
2019-06-26T21:18:57.179Z,25.60
2019-06-26T21:21:25.982Z,25.70
2019-06-26T21:23:54.838Z,25.60
2019-06-26T21:26:23.802Z,25.60
2019-06-26T21:28:52.761Z,25.60
2019-06-26T21:31:21.517Z,25.50
2019-06-26T21:33:50.394Z,25.50
2019-06-26T21:36:19.215Z,25.50
2019-06-26T21:38:47.978Z,25.50
2019-06-26T21:41:16.774Z,25.50
2019-06-26T21:43:45.571Z,25.40
2019-06-26T21:46:14.790Z,25.40
2019-06-26T21:48:43.598Z,25.40
2019-06-26T21:51:12.346Z,25.30
2019-06-26T21:53:41.147Z,25.30
2019-06-26T21:56:09.897Z,25.30
2019-06-26T21:58:38.649Z,25.30
2019-06-26T22:01:07.529Z,25.30
2019-06-26T22:03:36.299Z,25.20
2019-06-26T22:06:05.064Z,25.20
2019-06-26T22:08:33.949Z,25.20
2019-06-26T22:11:02.850Z,25.20
2019-06-26T22:13:31.713Z,25.20
2019-06-26T22:16:00.509Z,25.10
2019-06-26T22:18:29.421Z,25.20
2019-06-26T22:20:58.937Z,25.30
2019-06-26T22:23:27.727Z,25.30
2019-06-26T22:25:56.578Z,25.30
2019-06-26T22:28:25.909Z,25.30
2019-06-26T22:30:54.767Z,25.30
2019-06-26T22:33:23.557Z,25.30
2019-06-26T22:35:52.383Z,25.30
2019-06-26T22:38:21.137Z,25.30
2019-06-26T22:40:49.944Z,25.30
2019-06-26T22:43:18.820Z,25.20
2019-06-26T22:45:47.703Z,25.30
2019-06-26T22:48:18.645Z,25.20
2019-06-26T22:50:47.550Z,25.20
2019-06-26T22:53:16.442Z,25.20
2019-06-26T22:55:45.218Z,25.20
2019-06-26T22:58:15.002Z,25.20
2019-06-26T23:01:03.065Z,25.10
2019-06-26T23:03:31.910Z,25.10
2019-06-26T23:06:00.695Z,25.10
2019-06-26T23:08:29.450Z,25.10
2019-06-26T23:10:58.318Z,25.10
2019-06-26T23:13:27.087Z,25.10
2019-06-26T23:15:55.923Z,25.10
2019-06-26T23:18:24.725Z,25.10
2019-06-26T23:20:55.298Z,25.10
2019-06-26T23:23:24.054Z,25.00
2019-06-26T23:25:52.858Z,25.00
2019-06-26T23:28:21.623Z,25.10
2019-06-26T23:30:50.389Z,25.00
2019-06-26T23:33:19.272Z,25.00
2019-06-26T23:35:48.273Z,25.00
2019-06-26T23:38:17.133Z,25.00
2019-06-26T23:40:45.930Z,25.00
2019-06-26T23:43:14.682Z,25.00
2019-06-26T23:45:43.630Z,25.00
2019-06-26T23:48:12.437Z,25.00
2019-06-26T23:50:41.213Z,25.00
2019-06-26T23:53:09.984Z,25.00
2019-06-26T23:55:38.765Z,25.00
2019-06-26T23:58:07.521Z,24.90
